createdAt,value
2022-12-18T00:00:09.676Z,100.00
2022-12-18T00:02:43.901Z,100.00
2022-12-18T00:05:13.380Z,100.00
2022-12-18T00:07:41.844Z,100.00
2022-12-18T00:10:11.833Z,100.00
2022-12-18T00:12:43.908Z,100.00
2022-12-18T00:15:12.301Z,100.00
2022-12-18T00:17:40.694Z,100.00
2022-12-18T00:20:10.583Z,100.00
2022-12-18T00:22:38.962Z,100.00
2022-12-18T00:25:07.855Z,100.00
2022-12-18T00:27:37.601Z,100.00
2022-12-18T00:30:07.102Z,100.00
2022-12-18T00:32:35.561Z,100.00
2022-12-18T00:35:04.581Z,100.00
2022-12-18T00:37:33.686Z,100.00
2022-12-18T00:40:02.482Z,100.00
2022-12-18T00:42:48.289Z,100.00
2022-12-18T00:45:18.288Z,100.00
2022-12-18T00:47:47.554Z,100.00
2022-12-18T00:50:15.872Z,100.00
2022-12-18T00:52:44.430Z,100.00
2022-12-18T00:55:13.945Z,100.00
2022-12-18T00:57:42.746Z,100.00
2022-12-18T01:00:14.084Z,100.00
2022-12-18T01:02:45.011Z,100.00
2022-12-18T01:05:14.654Z,100.00
2022-12-18T01:07:43.649Z,100.00
2022-12-18T01:10:14.141Z,100.00
2022-12-18T01:12:42.554Z,100.00
2022-12-18T01:15:14.552Z,100.00
2022-12-18T01:17:43.084Z,100.00
2022-12-18T01:20:14.086Z,100.00
2022-12-18T01:22:42.681Z,100.00
2022-12-18T01:25:11.209Z,100.00
2022-12-18T01:27:39.557Z,100.00
2022-12-18T01:30:09.278Z,100.00
2022-12-18T01:32:37.716Z,100.00
2022-12-18T01:35:07.404Z,100.00
2022-12-18T01:37:37.330Z,100.00
2022-12-18T01:40:06.734Z,100.00
2022-12-18T01:42:35.162Z,100.00
2022-12-18T01:45:07.981Z,100.00
2022-12-18T01:47:39.988Z,100.00
2022-12-18T01:50:12.376Z,100.00
2022-12-18T01:52:44.437Z,100.00
2022-12-18T01:55:14.547Z,100.00
2022-12-18T01:57:43.788Z,100.00
2022-12-18T02:00:14.739Z,100.00
2022-12-18T02:02:43.714Z,100.00
2022-12-18T02:05:13.458Z,100.00
2022-12-18T02:07:54.999Z,100.00
2022-12-18T02:10:29.013Z,100.00
2022-12-18T02:13:03.960Z,100.00
2022-12-18T02:15:38.515Z,100.00
2022-12-18T02:18:11.509Z,100.00
2022-12-18T02:20:46.217Z,100.00
2022-12-18T02:23:35.233Z,100.00
2022-12-18T02:26:17.302Z,100.00
2022-12-18T02:28:52.180Z,100.00
2022-12-18T02:31:25.860Z,100.00
2022-12-18T02:33:58.409Z,100.00
2022-12-18T02:36:29.075Z,100.00
2022-12-18T02:39:00.245Z,100.00
2022-12-18T02:41:31.867Z,100.00
2022-12-18T02:44:03.477Z,100.00
2022-12-18T02:46:37.381Z,100.00
2022-12-18T02:49:28.598Z,100.00
2022-12-18T02:52:07.000Z,100.00
2022-12-18T02:54:51.237Z,100.00
2022-12-18T02:57:30.478Z,100.00
2022-12-18T03:00:04.899Z,100.00
2022-12-18T03:02:39.850Z,100.00
2022-12-18T03:05:16.633Z,100.00
2022-12-18T03:07:52.681Z,100.00
2022-12-18T03:10:26.401Z,100.00
2022-12-18T03:13:02.517Z,100.00
2022-12-18T03:15:36.675Z,100.00
2022-12-18T03:18:15.112Z,100.00
2022-12-18T03:20:46.324Z,100.00
2022-12-18T03:23:25.941Z,100.00
2022-12-18T03:26:05.849Z,100.00
2022-12-18T03:28:42.878Z,100.00
2022-12-18T03:31:13.983Z,100.00
2022-12-18T03:33:48.287Z,100.00
2022-12-18T03:36:17.452Z,100.00
2022-12-18T03:38:46.015Z,100.00
2022-12-18T03:41:20.691Z,100.00
2022-12-18T03:44:25.886Z,100.00
2022-12-18T03:47:00.394Z,100.00
2022-12-18T03:49:37.480Z,100.00
2022-12-18T03:52:12.755Z,100.00
2022-12-18T03:54:44.791Z,100.00
2022-12-18T03:57:20.547Z,100.00
2022-12-18T03:59:56.597Z,100.00
2022-12-18T04:02:29.796Z,100.00
2022-12-18T04:05:04.816Z,100.00
2022-12-18T04:07:34.324Z,100.00
2022-12-18T04:10:05.393Z,100.00
2022-12-18T04:12:34.061Z,100.00
2022-12-18T04:15:05.011Z,100.00
2022-12-18T04:17:33.829Z,100.00
2022-12-18T04:20:02.997Z,100.00
2022-12-18T04:22:32.593Z,100.00
2022-12-18T04:25:01.676Z,100.00
2022-12-18T04:27:37.479Z,100.00
2022-12-18T04:30:10.097Z,100.00
2022-12-18T04:32:38.666Z,100.00
2022-12-18T04:35:11.357Z,100.00
2022-12-18T04:37:41.312Z,100.00
2022-12-18T04:40:10.887Z,100.00
2022-12-18T04:42:43.707Z,100.00
2022-12-18T04:45:24.007Z,100.00
2022-12-18T04:47:52.584Z,100.00
2022-12-18T04:50:21.034Z,100.00
2022-12-18T04:52:49.368Z,100.00
2022-12-18T04:55:18.149Z,100.00
2022-12-18T04:57:46.540Z,100.00
2022-12-18T05:00:17.111Z,100.00
2022-12-18T05:02:45.851Z,100.00
2022-12-18T05:05:14.381Z,100.00
2022-12-18T05:07:42.826Z,100.00
2022-12-18T05:10:11.702Z,100.00
2022-12-18T05:12:58.877Z,100.00
2022-12-18T05:15:31.723Z,100.00
2022-12-18T05:18:01.198Z,100.00
2022-12-18T05:20:29.890Z,100.00
2022-12-18T05:22:58.356Z,100.00
2022-12-18T05:25:27.062Z,100.00
2022-12-18T05:27:55.426Z,100.00
2022-12-18T05:30:23.797Z,100.00
2022-12-18T05:32:53.554Z,100.00
2022-12-18T05:35:22.185Z,100.00
2022-12-18T05:37:50.500Z,100.00
2022-12-18T05:40:19.160Z,100.00
2022-12-18T05:42:47.646Z,100.00
2022-12-18T05:45:16.036Z,100.00
2022-12-18T05:47:44.390Z,100.00
2022-12-18T05:50:14.130Z,100.00
2022-12-18T05:52:42.577Z,100.00
2022-12-18T05:55:11.031Z,100.00
2022-12-18T05:57:39.584Z,100.00
2022-12-18T06:00:09.300Z,100.00
2022-12-18T06:02:40.732Z,100.00
2022-12-18T06:05:09.981Z,100.00
2022-12-18T06:07:39.753Z,100.00
2022-12-18T06:10:08.987Z,100.00
2022-12-18T06:12:37.371Z,100.00
2022-12-18T06:15:06.725Z,100.00
2022-12-18T06:17:35.688Z,100.00
2022-12-18T06:20:04.647Z,100.00
2022-12-18T06:22:33.467Z,100.00
2022-12-18T06:25:03.392Z,100.00
2022-12-18T06:27:31.852Z,100.00
2022-12-18T06:30:00.179Z,100.00
2022-12-18T06:32:28.879Z,100.00
2022-12-18T06:34:57.253Z,100.00
2022-12-18T06:37:26.948Z,100.00
2022-12-18T06:39:55.529Z,100.00
2022-12-18T06:42:26.844Z,100.00
2022-12-18T06:44:55.237Z,100.00
2022-12-18T06:47:23.630Z,100.00
2022-12-18T06:49:51.964Z,100.00
2022-12-18T06:52:20.460Z,100.00
2022-12-18T06:54:49.016Z,100.00
2022-12-18T06:57:17.301Z,100.00
2022-12-18T06:59:47.285Z,100.00
2022-12-18T07:02:15.844Z,100.00
2022-12-18T07:04:44.367Z,100.00
2022-12-18T07:07:12.907Z,100.00
2022-12-18T07:09:41.268Z,100.00
2022-12-18T07:12:09.852Z,100.00
2022-12-18T07:14:38.259Z,100.00
2022-12-18T07:17:08.327Z,100.00
2022-12-18T07:19:36.901Z,100.00
2022-12-18T07:22:05.247Z,100.00
2022-12-18T07:24:35.369Z,100.00
2022-12-18T07:27:04.628Z,100.00
2022-12-18T07:29:33.107Z,100.00
2022-12-18T07:32:01.578Z,100.00
2022-12-18T07:34:31.400Z,100.00
2022-12-18T07:36:59.814Z,100.00
2022-12-18T07:39:28.622Z,100.00
2022-12-18T07:42:14.480Z,100.00
2022-12-18T07:44:42.896Z,100.00
2022-12-18T07:47:12.297Z,100.00
2022-12-18T07:49:42.169Z,100.00
2022-12-18T07:52:10.580Z,100.00
2022-12-18T07:54:38.894Z,100.00
2022-12-18T07:57:16.551Z,100.00
2022-12-18T07:59:56.623Z,100.00
2022-12-18T08:02:25.172Z,100.00
2022-12-18T08:04:55.102Z,100.00
2022-12-18T08:07:23.761Z,100.00
2022-12-18T08:09:52.130Z,99.62
2022-12-18T08:12:20.477Z,95.99
2022-12-18T08:14:48.979Z,95.05
2022-12-18T08:17:17.313Z,93.56
2022-12-18T08:19:45.741Z,93.16
2022-12-18T08:22:15.541Z,94.36
2022-12-18T08:24:43.961Z,93.61
2022-12-18T08:27:28.990Z,95.35
2022-12-18T08:29:58.311Z,95.78
2022-12-18T08:32:27.392Z,94.36
2022-12-18T08:34:55.857Z,91.69
2022-12-18T08:37:25.629Z,87.39
2022-12-18T08:39:54.138Z,84.42
2022-12-18T08:42:40.045Z,81.97
2022-12-18T08:45:10.545Z,77.43
2022-12-18T08:47:39.006Z,75.04
2022-12-18T08:50:08.018Z,72.74
2022-12-18T08:52:37.803Z,72.75
2022-12-18T08:55:07.416Z,73.79
2022-12-18T08:57:35.959Z,74.14
2022-12-18T09:00:05.729Z,74.48
2022-12-18T09:02:34.227Z,72.49
2022-12-18T09:05:02.663Z,68.46
2022-12-18T09:07:31.081Z,67.09
2022-12-18T09:10:01.018Z,68.30
2022-12-18T09:12:29.372Z,65.59
2022-12-18T09:14:58.193Z,65.02
2022-12-18T09:17:27.169Z,64.24
2022-12-18T09:19:55.549Z,63.25
2022-12-18T09:22:23.985Z,64.55
2022-12-18T09:24:52.600Z,66.46
2022-12-18T09:27:24.663Z,67.95
2022-12-18T09:29:53.097Z,66.62
2022-12-18T09:32:22.589Z,68.98
2022-12-18T09:34:51.213Z,71.75
2022-12-18T09:37:19.752Z,70.01
2022-12-18T09:39:48.267Z,69.39
2022-12-18T09:42:23.098Z,68.71
2022-12-18T09:44:55.789Z,68.66
2022-12-18T09:47:27.611Z,68.68
2022-12-18T09:49:59.981Z,65.93
2022-12-18T09:52:32.532Z,66.08
2022-12-18T09:55:04.385Z,65.66
2022-12-18T09:57:37.583Z,67.16
2022-12-18T10:00:17.113Z,66.47
2022-12-18T10:02:45.793Z,63.23
2022-12-18T10:05:16.288Z,62.58
2022-12-18T10:07:56.361Z,61.58
2022-12-18T10:10:37.756Z,61.40
2022-12-18T10:13:17.500Z,60.39
2022-12-18T10:15:57.124Z,61.31
2022-12-18T10:18:39.212Z,61.65
2022-12-18T10:21:14.319Z,64.46
2022-12-18T10:23:52.194Z,64.69
2022-12-18T10:26:21.005Z,64.67
2022-12-18T10:28:50.483Z,65.53
2022-12-18T10:31:24.580Z,66.36
2022-12-18T10:33:55.325Z,66.97
2022-12-18T10:36:25.533Z,66.97
2022-12-18T10:38:54.261Z,65.05
2022-12-18T10:41:27.794Z,66.85
2022-12-18T10:44:14.420Z,66.58
2022-12-18T10:46:44.280Z,66.75
2022-12-18T10:49:23.270Z,67.91
2022-12-18T10:51:53.545Z,68.44
2022-12-18T10:54:25.772Z,69.43
2022-12-18T10:57:17.761Z,70.10
2022-12-18T10:59:54.463Z,71.16
2022-12-18T11:02:36.656Z,73.71
2022-12-18T11:05:25.621Z,72.55
2022-12-18T11:07:55.660Z,74.17
2022-12-18T11:10:27.307Z,73.40
2022-12-18T11:13:10.787Z,74.70
2022-12-18T11:15:43.599Z,73.88
2022-12-18T11:18:21.868Z,75.46
2022-12-18T11:20:59.138Z,75.47
2022-12-18T11:23:30.151Z,75.70
2022-12-18T11:26:01.496Z,75.91
2022-12-18T11:28:38.411Z,78.20
2022-12-18T11:31:20.408Z,81.15
2022-12-18T11:34:27.458Z,79.71
2022-12-18T11:36:48.673Z,81.42
2022-12-18T11:39:22.920Z,81.17
2022-12-18T11:42:13.476Z,81.22
2022-12-18T11:44:53.463Z,82.89
2022-12-18T11:47:29.304Z,83.17
2022-12-18T11:50:02.197Z,83.58
2022-12-18T11:52:38.248Z,85.05
2022-12-18T11:55:14.323Z,83.47
2022-12-18T11:57:53.266Z,84.46
2022-12-18T12:00:23.549Z,83.99
2022-12-18T12:03:16.932Z,84.40
2022-12-18T12:06:05.684Z,84.84
2022-12-18T12:08:46.545Z,84.29
2022-12-18T12:11:24.963Z,84.40
2022-12-18T12:14:08.417Z,86.15
2022-12-18T12:16:43.180Z,85.38
2022-12-18T12:19:25.543Z,82.99
2022-12-18T12:22:06.037Z,82.52
2022-12-18T12:24:46.393Z,79.90
2022-12-18T12:27:22.595Z,79.14
2022-12-18T12:30:02.732Z,75.33
2022-12-18T12:32:41.904Z,75.97
2022-12-18T12:35:25.116Z,71.38
2022-12-18T12:38:07.309Z,73.17
2022-12-18T12:40:58.811Z,70.58
2022-12-18T12:43:34.268Z,70.62
2022-12-18T12:46:07.556Z,71.67
2022-12-18T12:48:43.394Z,70.33
2022-12-18T12:51:19.289Z,70.01
2022-12-18T12:54:37.178Z,71.09
2022-12-18T12:57:15.041Z,72.71
2022-12-18T12:59:51.233Z,74.35
2022-12-18T13:02:25.440Z,75.93
2022-12-18T13:05:01.000Z,75.93
2022-12-18T13:07:35.456Z,77.06
2022-12-18T13:10:17.822Z,78.71
2022-12-18T13:12:59.745Z,78.55
2022-12-18T13:15:43.911Z,78.61
2022-12-18T13:18:23.482Z,79.95
2022-12-18T13:21:03.987Z,79.97
2022-12-18T13:23:43.630Z,79.65
2022-12-18T13:26:35.586Z,81.59
2022-12-18T13:29:06.958Z,81.40
2022-12-18T13:32:03.094Z,82.80
2022-12-18T13:34:32.979Z,83.73
2022-12-18T13:37:35.387Z,82.78
2022-12-18T13:40:04.735Z,82.86
2022-12-18T13:42:58.727Z,81.99
2022-12-18T13:45:47.745Z,80.55
2022-12-18T13:48:25.265Z,76.21
2022-12-18T13:51:00.341Z,78.14
2022-12-18T13:53:32.519Z,79.38
2022-12-18T13:56:04.482Z,79.97
2022-12-18T13:58:33.881Z,81.25
2022-12-18T14:01:05.651Z,83.57
2022-12-18T14:03:34.279Z,82.82
2022-12-18T14:06:09.978Z,81.68
2022-12-18T14:08:41.815Z,83.34
2022-12-18T14:11:22.229Z,84.04
2022-12-18T14:13:51.911Z,81.78
2022-12-18T14:16:22.279Z,84.48
2022-12-18T14:19:02.717Z,83.47
2022-12-18T14:21:39.875Z,83.59
2022-12-18T14:24:17.569Z,83.51
2022-12-18T14:26:50.717Z,83.88
2022-12-18T14:29:27.407Z,85.77
2022-12-18T14:32:19.232Z,84.55
2022-12-18T14:34:49.350Z,84.77
2022-12-18T14:37:20.117Z,84.60
2022-12-18T14:39:58.778Z,86.15
2022-12-18T14:42:29.149Z,86.82
2022-12-18T14:45:42.515Z,88.07
2022-12-18T14:48:23.623Z,87.64
2022-12-18T14:51:02.016Z,87.98
2022-12-18T14:53:37.879Z,90.22
2022-12-18T14:56:19.159Z,90.95
2022-12-18T14:58:52.627Z,91.19
2022-12-18T15:05:18.859Z,79.29
2022-12-18T15:07:49.471Z,82.63
2022-12-18T15:10:19.932Z,79.85
2022-12-18T15:12:50.983Z,81.25
2022-12-18T15:15:48.134Z,82.87
2022-12-18T15:18:19.415Z,81.06
2022-12-18T15:20:51.363Z,83.57
2022-12-18T15:23:22.541Z,84.23
2022-12-18T15:26:04.387Z,83.55
2022-12-18T15:28:40.511Z,82.55
2022-12-18T15:31:24.160Z,80.28
2022-12-18T15:34:11.497Z,76.58
2022-12-18T15:36:41.645Z,76.45
2022-12-18T15:39:14.004Z,77.05
2022-12-18T15:42:02.585Z,74.01
2022-12-18T15:44:30.063Z,71.64
2022-12-18T15:46:58.590Z,73.25
2022-12-18T15:49:29.082Z,74.12
2022-12-18T15:52:05.272Z,75.20
2022-12-18T15:54:51.882Z,78.94
2022-12-18T15:57:26.378Z,77.86
2022-12-18T15:59:58.835Z,78.04
2022-12-18T16:02:28.891Z,77.81
2022-12-18T16:04:57.864Z,79.08
2022-12-18T16:07:30.547Z,81.42
2022-12-18T16:10:00.361Z,83.95
2022-12-18T16:12:30.979Z,83.83
2022-12-18T16:14:59.422Z,84.45
2022-12-18T16:17:27.793Z,86.02
2022-12-18T16:19:56.359Z,86.27
2022-12-18T16:22:28.026Z,88.41
2022-12-18T16:24:57.571Z,87.28
2022-12-18T16:27:27.032Z,87.53
2022-12-18T16:29:55.593Z,87.57
2022-12-18T16:32:24.741Z,87.12
2022-12-18T16:34:53.261Z,78.71
2022-12-18T16:37:48.392Z,78.99
2022-12-18T16:40:18.803Z,81.86
2022-12-18T16:42:48.128Z,86.64
2022-12-18T16:45:19.795Z,85.20
2022-12-18T16:47:48.406Z,86.96
2022-12-18T16:50:16.881Z,85.73
2022-12-18T16:52:45.174Z,87.08
2022-12-18T16:55:14.823Z,88.02
2022-12-18T16:57:43.289Z,86.83
2022-12-18T17:00:13.387Z,87.88
2022-12-18T17:02:42.080Z,88.89
2022-12-18T17:05:10.937Z,86.07
2022-12-18T17:07:40.478Z,87.50
2022-12-18T17:10:09.789Z,89.50
2022-12-18T17:12:39.877Z,90.05
2022-12-18T17:15:10.270Z,90.59
2022-12-18T17:17:39.348Z,89.71
2022-12-18T17:20:08.859Z,89.20
2022-12-18T17:22:37.215Z,86.80
2022-12-18T17:25:06.519Z,88.93
2022-12-18T17:27:35.004Z,88.14
2022-12-18T17:30:05.685Z,80.88
2022-12-18T17:32:34.116Z,80.55
2022-12-18T17:35:06.941Z,81.58
2022-12-18T17:37:37.182Z,82.98
2022-12-18T17:40:06.792Z,80.92
2022-12-18T17:42:35.215Z,82.57
2022-12-18T17:45:07.380Z,80.37
2022-12-18T17:47:35.710Z,79.93
2022-12-18T17:50:04.755Z,80.19
2022-12-18T17:52:36.334Z,75.88
2022-12-18T17:55:05.049Z,75.19
2022-12-18T17:57:33.841Z,72.38
2022-12-18T18:00:02.757Z,70.02
2022-12-18T18:02:39.404Z,66.91
2022-12-18T18:05:08.439Z,65.60
2022-12-18T18:07:40.535Z,65.48
2022-12-18T18:10:10.814Z,64.54
2022-12-18T18:12:57.305Z,62.54
2022-12-18T18:15:25.723Z,62.48
2022-12-18T18:17:55.479Z,64.28
2022-12-18T18:20:23.897Z,65.68
2022-12-18T18:22:52.494Z,62.53
2022-12-18T18:25:20.909Z,62.74
2022-12-18T18:27:50.824Z,62.49
2022-12-18T18:30:19.526Z,62.76
2022-12-18T18:32:48.511Z,63.39
2022-12-18T18:35:45.173Z,64.90
2022-12-18T18:38:07.381Z,66.42
2022-12-18T18:40:35.698Z,67.37
2022-12-18T18:43:04.117Z,68.42
2022-12-18T18:45:38.832Z,69.14
2022-12-18T18:48:08.606Z,69.33
2022-12-18T18:50:43.971Z,69.08
2022-12-18T18:53:12.771Z,70.20
2022-12-18T18:55:41.177Z,70.95
2022-12-18T18:58:09.614Z,70.65
2022-12-18T19:00:38.082Z,72.23
2022-12-18T19:03:06.879Z,72.54
2022-12-18T19:05:44.451Z,72.79
2022-12-18T19:08:15.947Z,74.54
2022-12-18T19:10:44.349Z,74.57
2022-12-18T19:13:22.042Z,74.58
2022-12-18T19:15:51.797Z,75.41
2022-12-18T19:18:31.643Z,77.79
2022-12-18T19:21:04.749Z,74.20
2022-12-18T19:23:46.090Z,75.43
2022-12-18T19:26:27.636Z,75.23
2022-12-18T19:29:02.015Z,75.92
2022-12-18T19:31:35.215Z,76.42
2022-12-18T19:34:06.619Z,75.90
2022-12-18T19:36:38.720Z,76.74
2022-12-18T19:39:12.165Z,79.05
2022-12-18T19:41:42.208Z,76.44
2022-12-18T19:44:12.453Z,77.12
2022-12-18T19:46:42.341Z,78.15
2022-12-18T19:49:11.094Z,78.26
2022-12-18T19:51:43.957Z,79.17
2022-12-18T19:54:16.626Z,79.76
2022-12-18T19:56:47.211Z,79.35
2022-12-18T19:59:15.942Z,81.02
2022-12-18T20:01:44.378Z,81.89
2022-12-18T20:04:12.973Z,80.90
2022-12-18T20:06:50.861Z,81.23
2022-12-18T20:09:20.953Z,82.04
2022-12-18T20:11:50.036Z,81.57
2022-12-18T20:14:23.186Z,82.16
2022-12-18T20:16:53.480Z,82.46
2022-12-18T20:19:23.188Z,82.89
2022-12-18T20:21:53.160Z,83.47
2022-12-18T20:24:21.546Z,85.38
2022-12-18T20:26:50.049Z,88.48
2022-12-18T20:29:18.800Z,90.25
2022-12-18T20:31:47.185Z,91.19
2022-12-18T20:34:15.661Z,91.65
2022-12-18T20:36:44.508Z,92.87
2022-12-18T20:39:16.232Z,94.55
2022-12-18T20:41:45.633Z,95.84
2022-12-18T20:44:22.960Z,97.40
2022-12-18T20:46:54.615Z,100.00
2022-12-18T20:49:23.732Z,100.00
2022-12-18T20:51:53.310Z,100.00
2022-12-18T20:54:24.902Z,100.00
2022-12-18T20:56:53.431Z,100.00
2022-12-18T20:59:23.048Z,100.00
2022-12-18T21:01:54.709Z,100.00
2022-12-18T21:04:24.071Z,100.00
2022-12-18T21:07:00.465Z,100.00
2022-12-18T21:09:38.295Z,100.00
2022-12-18T21:12:29.092Z,100.00
2022-12-18T21:14:59.486Z,100.00
2022-12-18T21:17:28.383Z,100.00
2022-12-18T21:19:57.629Z,100.00
2022-12-18T21:22:43.672Z,100.00
2022-12-18T21:25:14.564Z,100.00
2022-12-18T21:27:42.888Z,100.00
2022-12-18T21:30:11.966Z,100.00
2022-12-18T21:32:40.423Z,100.00
2022-12-18T21:35:09.562Z,100.00
2022-12-18T21:37:38.012Z,100.00
2022-12-18T21:40:08.133Z,100.00
2022-12-18T21:42:55.674Z,100.00
2022-12-18T21:45:24.079Z,100.00
2022-12-18T21:47:52.436Z,100.00
2022-12-18T21:50:20.767Z,100.00
2022-12-18T21:52:49.221Z,100.00
2022-12-18T21:55:17.707Z,100.00
2022-12-18T21:57:47.467Z,100.00
2022-12-18T22:00:19.107Z,100.00
2022-12-18T22:03:16.932Z,100.00
2022-12-18T22:05:37.331Z,100.00
2022-12-18T22:08:06.646Z,100.00
2022-12-18T22:10:35.762Z,100.00
2022-12-18T22:13:05.791Z,100.00
2022-12-18T22:15:34.389Z,100.00
2022-12-18T22:18:02.854Z,100.00
2022-12-18T22:20:31.245Z,100.00
2022-12-18T22:23:01.104Z,100.00
2022-12-18T22:25:35.224Z,100.00
2022-12-18T22:28:24.635Z,100.00
2022-12-18T22:30:59.177Z,100.00
2022-12-18T22:33:28.729Z,100.00
2022-12-18T22:35:57.113Z,100.00
2022-12-18T22:38:25.472Z,100.00
2022-12-18T22:40:53.828Z,100.00
2022-12-18T22:43:23.724Z,100.00
2022-12-18T22:45:52.063Z,100.00
2022-12-18T22:48:20.890Z,100.00
2022-12-18T22:50:49.480Z,100.00
2022-12-18T22:53:19.250Z,100.00
2022-12-18T22:55:47.617Z,100.00
2022-12-18T22:58:15.933Z,100.00
2022-12-18T23:00:45.654Z,100.00
2022-12-18T23:03:14.035Z,100.00
2022-12-18T23:05:42.404Z,100.00
2022-12-18T23:08:10.783Z,100.00
2022-12-18T23:10:39.703Z,100.00
2022-12-18T23:13:08.169Z,100.00
2022-12-18T23:15:42.302Z,100.00
2022-12-18T23:18:12.514Z,100.00
2022-12-18T23:20:41.017Z,100.00
2022-12-18T23:23:09.967Z,100.00
2022-12-18T23:25:38.392Z,100.00
2022-12-18T23:28:07.098Z,100.00
2022-12-18T23:30:35.980Z,100.00
2022-12-18T23:33:04.375Z,100.00
2022-12-18T23:35:34.055Z,100.00
2022-12-18T23:38:02.509Z,100.00
2022-12-18T23:40:31.124Z,100.00
2022-12-18T23:43:00.158Z,100.00
2022-12-18T23:45:28.527Z,100.00
2022-12-18T23:47:56.852Z,100.00
2022-12-18T23:50:29.644Z,100.00
2022-12-18T23:53:05.426Z,100.00
2022-12-18T23:55:39.882Z,100.00
2022-12-18T23:58:09.423Z,100.00
